Time;durP1;ratioP1;P1;durP2;ratioP2;P2;SDS_P1;SDS_P2;PMS_P1;PMS_P2;Temp;Humidity;BMP_temperature;BMP_pressure;BME280_temperature;BME280_humidity;BME280_pressure;Samples;Min_cycle;Max_cycle;Signal;HPM_P1;HPM_P2
2021/01/05 00:01:52;;;;;;;25.88;11.83;;;;;;;6.12;89.98;98055.11;1806389;79;21699;-81
2021/01/05 00:04:19;;;;;;;26.37;12.50;;;;;;;6.12;90.26;98052.53;1744637;82;21786;-81
2021/01/05 00:06:47;;;;;;;24.50;11.40;;;;;;;6.15;89.60;98055.89;1744608;82;22274;-81
2021/01/05 00:09:14;;;;;;;22.98;10.45;;;;;;;6.12;90.03;98055.11;1743495;81;21291;-81
2021/01/05 00:12:01;;;;;;;21.68;10.55;;;;;;;6.08;90.51;98051.75;1807912;79;21276;-82
2021/01/05 00:14:30;;;;;;;26.07;10.85;;;;;;;6.12;89.56;98059.81;1806596;79;21268;-82
2021/01/05 00:16:58;;;;;;;23.05;11.03;;;;;;;6.08;90.58;98063.81;1805419;79;21666;-81
2021/01/05 00:19:26;;;;;;;25.40;11.00;;;;;;;6.11;89.62;98056.84;1808236;79;21338;-82
2021/01/05 00:21:54;;;;;;;21.73;10.50;;;;;;;6.11;90.25;98052.98;1742565;82;21276;-80
2021/01/05 00:24:21;;;;;;;21.90;10.45;;;;;;;6.17;89.89;98059.28;1745840;82;21764;-81
2021/01/05 00:26:49;;;;;;;25.80;10.23;;;;;;;6.21;89.81;98055.31;1745568;82;21299;-81
2021/01/05 00:29:16;;;;;;;22.58;10.70;;;;;;;6.24;89.72;98052.22;1810162;79;21349;-81
2021/01/05 00:31:44;;;;;;;23.80;10.48;;;;;;;6.32;89.56;98056.75;1808945;79;21772;-81
2021/01/05 00:34:12;;;;;;;23.35;9.78;;;;;;;6.40;89.45;98054.44;1806556;79;21720;-83
2021/01/05 00:36:39;;;;;;;24.60;10.45;;;;;;;6.45;89.29;98044.41;1812267;79;21319;-82
2021/01/05 00:39:08;;;;;;;24.98;11.15;;;;;;;6.49;89.14;98051.64;1808172;79;21551;-81
2021/01/05 00:41:35;;;;;;;24.37;12.50;;;;;;;6.48;88.97;98055.09;1806107;79;21320;-81
2021/01/05 00:44:03;;;;;;;22.27;9.43;;;;;;;6.47;88.87;98048.25;1738516;82;21629;-80
2021/01/05 00:46:31;;;;;;;21.85;9.75;;;;;;;6.48;88.67;98055.93;1759208;81;21334;-81
2021/01/05 00:48:58;;;;;;;20.50;9.98;;;;;;;6.48;88.45;98062.38;1762488;81;21287;-81
2021/01/05 00:51:26;;;;;;;19.82;9.60;;;;;;;6.48;88.48;98055.93;1800920;79;21733;-82
2021/01/05 00:53:54;;;;;;;23.22;10.35;;;;;;;6.54;88.37;98061.39;1797038;79;21165;-85
2021/01/05 00:56:22;;;;;;;21.37;10.03;;;;;;;6.54;88.35;98062.23;1736126;82;21150;-83
2021/01/05 00:58:49;;;;;;;23.00;10.20;;;;;;;6.52;88.25;98067.88;1761140;81;21523;-80
2021/01/05 01:01:20;;;;;;;21.95;10.85;;;;;;;6.49;88.30;98064.09;1739692;82;21300;-80
2021/01/05 01:03:49;;;;;;;20.10;10.35;;;;;;;6.48;88.32;98071.88;1765794;81;21474;-81
2021/01/05 01:06:19;;;;;;;22.07;9.88;;;;;;;6.52;88.31;98073.04;1773829;79;21425;-81
2021/01/05 01:08:46;;;;;;;30.10;12.70;;;;;;;6.50;88.61;98065.77;1799642;79;21158;-82
2021/01/05 01:11:15;;;;;;;24.05;11.57;;;;;;;6.45;88.53;98059.89;1735529;82;21190;-84
2021/01/05 01:13:43;;;;;;;27.20;12.40;;;;;;;6.10;88.89;98017.72;1764758;81;21121;-81
2021/01/05 01:16:13;;;;;;;29.27;11.75;;;;;;;6.40;88.63;98053.15;1804595;79;21146;-81
2021/01/05 01:18:40;;;;;;;23.73;11.70;;;;;;;6.32;89.12;98054.62;1799126;79;21318;-81
2021/01/05 01:21:08;;;;;;;22.30;11.30;;;;;;;6.34;88.73;98061.89;1738712;82;21169;-81
2021/01/05 01:23:36;;;;;;;28.17;12.70;;;;;;;6.27;89.61;98068.11;1799660;79;21284;-82
2021/01/05 01:26:04;;;;;;;22.98;10.30;;;;;;;6.30;88.89;98076.59;1796645;79;21311;-82
2021/01/05 01:28:32;;;;;;;24.25;10.82;;;;;;;6.30;89.21;98079.17;1800872;79;21317;-81
2021/01/05 01:30:59;;;;;;;21.90;11.40;;;;;;;6.25;89.37;98077.62;1804032;79;21308;-81
2021/01/05 01:33:28;;;;;;;24.57;11.85;;;;;;;6.18;89.51;98069.99;1800498;79;21697;-81
2021/01/05 01:35:57;;;;;;;23.40;11.18;;;;;;;6.24;90.13;98081.06;1800643;79;21276;-81
2021/01/05 01:38:26;;;;;;;24.57;11.45;;;;;;;6.26;89.90;98084.46;1801189;79;21295;-81
2021/01/05 01:40:56;;;;;;;29.30;11.18;;;;;;;6.25;89.98;98086.20;1741150;81;21170;-81
2021/01/05 01:43:30;;;;;;;24.45;10.98;;;;;;;6.28;89.70;98080.95;1739601;80;21268;-81
2021/01/05 01:46:09;;;;;;;23.73;11.18;;;;;;;6.29;89.88;98078.79;1735821;82;21229;-81
2021/01/05 01:48:39;;;;;;;24.65;10.70;;;;;;;6.28;89.95;98080.95;1763935;81;21589;-80
2021/01/05 01:51:07;;;;;;;28.35;11.73;;;;;;;6.32;89.60;98080.44;1737020;80;21304;-82
2021/01/05 01:54:03;;;;;;;25.65;11.30;;;;;;;6.35;89.80;98080.37;1739826;81;21537;-82
2021/01/05 01:56:49;;;;;;;;;;;;;;;6.40;89.74;98078.97;1739745;82;21302;-81
2021/01/05 01:59:41;;;;;;;26.20;11.03;;;;;;;6.43;89.78;98075.88;1767776;80;20294;-81
2021/01/05 02:02:14;;;;;;;23.35;11.73;;;;;;;6.44;89.46;98077.55;1737501;80;21272;-81
2021/01/05 02:05:07;;;;;;;23.07;10.40;;;;;;;6.45;89.50;98079.27;1750594;81;21170;-81
2021/01/05 02:08:02;;;;;;;33.38;16.12;;;;;;;6.46;89.80;98085.27;1756004;81;21575;-82
2021/01/05 02:10:41;;;;;;;44.40;21.75;;;;;;;6.42;88.30;98084.48;1760834;81;21154;-81
2021/01/05 02:13:39;;;;;;;36.50;19.75;;;;;;;6.03;85.87;98100.47;1758637;81;21165;-81
2021/01/05 02:16:50;;;;;;;40.05;23.00;;;;;;;5.90;86.30;98099.88;1728132;81;21189;-81
2021/01/05 02:19:51;;;;;;;44.25;22.07;;;;;;;5.78;86.42;98105.70;1736019;81;21321;-81
2021/01/05 02:22:30;;;;;;;44.90;22.73;;;;;;;5.61;86.93;98106.94;1731557;81;21179;-81
2021/01/05 02:25:25;;;;;;;50.40;23.05;;;;;;;5.55;86.84;98102.34;1709212;81;21160;-81
2021/01/05 02:27:59;;;;;;;40.43;18.92;;;;;;;5.43;86.91;98106.46;1733811;81;21143;-81
2021/01/05 02:30:38;;;;;;;48.15;21.60;;;;;;;5.25;87.48;98101.23;1732848;81;21258;-81
2021/01/05 02:33:32;;;;;;;46.98;21.75;;;;;;;5.22;87.19;98104.30;1730234;81;21175;-84
2021/01/05 02:36:26;;;;;;;43.98;21.35;;;;;;;5.11;88.37;98105.78;1730258;81;21318;-80
2021/01/05 02:39:53;;;;;;;46.65;22.50;;;;;;;5.04;89.12;98114.52;1801506;78;22930;-80
2021/01/05 02:43:05;;;;;;;49.03;21.30;;;;;;;4.93;89.32;98112.99;1809520;79;21363;-82
2021/01/05 02:46:09;;;;;;;40.80;19.52;;;;;;;5.00;88.57;98100.84;1810475;79;21160;-82
2021/01/05 02:49:22;;;;;;;48.15;22.02;;;;;;;4.93;89.84;98102.69;1869836;74;22931;-80
2021/01/05 02:52:41;;;;;;;49.08;21.30;;;;;;;4.94;89.23;98100.95;1860069;77;21158;-80
2021/01/05 02:55:44;;;;;;;46.48;20.82;;;;;;;4.86;90.31;98100.25;1856712;75;21656;-81
2021/01/05 02:58:52;;;;;;;50.05;21.70;;;;;;;4.84;90.09;98105.42;1860711;75;21119;-81
2021/01/05 03:01:46;;;;;;;50.05;21.95;;;;;;;4.86;90.35;98108.81;1860179;75;21111;-81
2021/01/05 03:04:32;;;;;;;45.55;20.60;;;;;;;4.89;90.03;98110.48;1859735;75;21281;-81
2021/01/05 03:07:23;;;;;;;42.65;20.80;;;;;;;4.89;89.94;98104.88;1860531;75;21153;-81
2021/01/05 03:10:52;;;;;;;42.95;19.95;;;;;;;4.88;89.77;98101.91;1859340;75;21149;-79
2021/01/05 03:14:11;;;;;;;44.45;19.35;;;;;;;4.87;90.01;98104.51;1858936;75;21119;-83
2021/01/05 03:17:31;;;;;;;51.77;27.23;;;;;;;4.94;89.63;98104.38;1813580;77;32016;-85
2021/01/05 03:20:31;;;;;;;43.92;22.77;;;;;;;4.96;89.58;98103.91;1810356;78;21157;-81
2021/01/05 03:23:18;;;;;;;45.63;23.32;;;;;;;5.01;89.41;98106.83;1808535;79;21225;-82
2021/01/05 03:26:07;;;;;;;44.70;21.87;;;;;;;4.93;89.50;98100.12;1805168;79;21260;-82
2021/01/05 03:28:53;;;;;;;48.10;24.23;;;;;;;4.98;88.48;98106.45;1809917;79;21240;-83
2021/01/05 03:31:50;;;;;;;46.50;20.88;;;;;;;4.91;88.37;98105.70;1746203;82;21268;-80
2021/01/05 03:34:36;;;;;;;40.20;20.68;;;;;;;4.84;89.47;98107.99;1747431;82;21177;-81
2021/01/05 03:37:35;;;;;;;49.55;22.25;;;;;;;4.85;89.42;98107.10;1807610;77;23085;-81
2021/01/05 03:40:21;;;;;;;45.30;21.23;;;;;;;4.79;90.07;98123.95;1780767;80;21248;-82
2021/01/05 03:43:07;;;;;;;48.45;21.40;;;;;;;4.78;89.67;98119.69;1775240;80;21177;-83
2021/01/05 03:45:52;;;;;;;48.63;22.20;;;;;;;4.77;89.91;98118.86;1790828;78;21239;-82
2021/01/05 03:48:38;;;;;;;41.98;19.62;;;;;;;4.77;90.21;98117.98;1823842;73;21275;-82
2021/01/05 03:51:25;;;;;;;50.60;22.10;;;;;;;4.70;91.03;98117.25;1771305;80;21106;-83
2021/01/05 03:54:12;;;;;;;51.33;21.37;;;;;;;4.74;90.76;98114.19;1763873;80;22034;-82
2021/01/05 03:56:57;;;;;;;44.53;20.97;;;;;;;4.74;90.55;98124.05;1789017;78;21315;-82
2021/01/05 03:59:42;;;;;;;48.05;23.12;;;;;;;4.69;91.44;98123.26;1803887;77;22916;-87
2021/01/05 04:02:28;;;;;;;47.88;23.98;;;;;;;4.69;91.31;98131.42;1836028;77;21214;-83
2021/01/05 04:04:55;;;;;;;50.38;22.77;;;;;;;4.75;90.48;98121.86;1778052;81;21527;-84
2021/01/05 04:07:23;;;;;;;43.68;20.72;;;;;;;4.69;90.19;98121.97;1838303;77;21123;-82
2021/01/05 04:09:50;;;;;;;55.85;20.60;;;;;;;4.61;91.58;98119.13;1834043;77;21264;-82
2021/01/05 04:12:18;;;;;;;49.15;21.70;;;;;;;4.65;90.42;98119.48;1776963;81;21268;-84
2021/01/05 04:14:45;;;;;;;53.87;20.48;;;;;;;4.35;91.15;98077.48;1841665;77;21253;-82
2021/01/05 04:17:13;;;;;;;49.08;21.27;;;;;;;4.58;91.96;98123.45;1840667;77;21292;-82
2021/01/05 04:19:40;;;;;;;52.95;22.77;;;;;;;4.57;92.29;98129.45;1780229;81;21230;-82
2021/01/05 04:22:07;;;;;;;53.87;22.80;;;;;;;4.60;91.91;98135.02;1779373;80;21241;-82
2021/01/05 04:24:35;;;;;;;47.00;21.62;;;;;;;4.62;92.19;98144.01;1779650;80;21284;-83
2021/01/05 04:27:02;;;;;;;53.33;21.60;;;;;;;4.64;91.86;98142.26;1779354;80;21167;-83
2021/01/05 04:29:30;;;;;;;45.90;21.48;;;;;;;4.68;91.29;98138.75;1838780;77;21217;-83
2021/01/05 04:31:57;;;;;;;63.83;24.65;;;;;;;4.69;91.23;98138.70;1840286;77;21255;-82
2021/01/05 04:34:24;;;;;;;56.18;25.68;;;;;;;4.67;91.74;98147.34;1776122;81;21257;-82
2021/01/05 04:36:52;;;;;;;45.65;21.17;;;;;;;4.68;91.82;98146.48;1777807;80;21292;-82
2021/01/05 04:39:19;;;;;;;44.30;19.27;;;;;;;4.67;91.98;98143.03;1845184;77;21213;-82
2021/01/05 04:42:01;;;;;;;47.48;20.48;;;;;;;4.73;91.30;98148.52;1843530;77;21236;-83
2021/01/05 04:44:31;;;;;;;42.67;19.00;;;;;;;4.68;91.96;98157.62;1833172;77;21264;-83
2021/01/05 04:47:10;;;;;;;47.17;19.40;;;;;;;4.66;92.25;98155.52;1849800;77;21839;-82
2021/01/05 04:50:09;;;;;;;47.43;19.85;;;;;;;4.66;92.18;98163.68;1818723;77;21277;-82
2021/01/05 04:52:44;;;;;;;47.75;21.77;;;;;;;4.69;92.17;98169.60;1844001;77;21256;-85
2021/01/05 04:55:42;;;;;;;42.80;21.55;;;;;;;4.67;92.19;98168.78;1837856;77;21268;-82
2021/01/05 04:58:30;;;;;;;43.60;21.25;;;;;;;4.76;92.20;98176.81;1805110;78;23249;-86
2021/01/05 05:00:59;;;;;;;40.83;19.07;;;;;;;4.69;92.38;98175.20;1807186;79;21599;-83
2021/01/05 05:03:35;;;;;;;47.93;19.65;;;;;;;4.68;92.46;98187.67;1744759;82;21127;-83
2021/01/05 05:06:35;;;;;;;50.43;20.23;;;;;;;4.66;92.60;98190.27;1748680;82;21331;-82
2021/01/05 05:09:27;;;;;;;45.05;19.45;;;;;;;4.65;92.55;98192.41;1712297;82;21180;-87
2021/01/05 05:12:19;;;;;;;39.50;18.37;;;;;;;4.67;92.38;98196.26;1742712;81;21240;-82
2021/01/05 05:15:21;;;;;;;46.80;20.60;;;;;;;4.70;91.81;98191.91;1806601;79;21276;-81
2021/01/05 05:18:20;;;;;;;44.48;18.57;;;;;;;4.65;92.63;98193.70;1808819;79;21260;-83
2021/01/05 05:21:11;;;;;;;42.98;19.57;;;;;;;4.65;92.68;98196.72;1809106;79;21299;-83
2021/01/05 05:24:06;;;;;;;45.85;19.42;;;;;;;4.68;92.43;98206.98;1748129;82;21256;-83
2021/01/05 05:27:07;;;;;;;44.95;19.62;;;;;;;4.68;92.29;98212.13;1804878;79;22354;-86
2021/01/05 05:29:54;;;;;;;46.15;20.85;;;;;;;4.74;91.72;98209.46;1775660;79;21263;-82
2021/01/05 05:32:36;;;;;;;44.42;20.32;;;;;;;4.74;92.15;98210.75;1813761;79;21134;-83
2021/01/05 05:35:16;;;;;;;47.85;19.92;;;;;;;4.76;91.71;98220.59;1810589;79;21184;-82
2021/01/05 05:38:03;;;;;;;43.38;19.60;;;;;;;4.76;91.67;98214.98;1814384;79;21256;-82
2021/01/05 05:40:42;;;;;;;50.67;20.27;;;;;;;4.76;91.81;98218.85;1739652;81;21194;-83
2021/01/05 05:44:05;;;;;;;44.08;20.55;;;;;;;4.75;92.04;98223.58;1809127;79;21259;-83
2021/01/05 05:46:48;;;;;;;38.38;18.45;;;;;;;4.72;92.61;98224.08;1807677;79;21272;-83
2021/01/05 05:49:41;;;;;;;44.23;20.85;;;;;;;4.74;92.83;98224.91;1815931;79;21425;-83
2021/01/05 05:52:19;;;;;;;40.15;20.17;;;;;;;4.77;92.73;98232.57;1816064;79;21245;-83
2021/01/05 05:54:47;;;;;;;49.73;22.67;;;;;;;4.80;92.76;98237.69;1804215;79;21279;-84
2021/01/05 05:57:44;;;;;;;50.50;23.60;;;;;;;4.79;92.93;98241.13;1808527;79;22408;-81
2021/01/05 06:00:17;;;;;;;42.75;19.65;;;;;;;4.78;92.92;98242.86;1809257;79;21241;-83
2021/01/05 06:02:44;;;;;;;46.20;20.30;;;;;;;4.76;93.00;98242.47;1818764;79;21261;-83
2021/01/05 06:05:34;;;;;;;39.38;18.90;;;;;;;4.74;93.30;98244.22;1740219;82;21169;-81
2021/01/05 06:08:08;;;;;;;45.78;19.32;;;;;;;4.76;92.94;98257.92;1763559;81;21327;-84
2021/01/05 06:10:35;;;;;;;43.87;18.73;;;;;;;4.75;93.32;98257.49;1807178;79;21248;-83
2021/01/05 06:13:04;;;;;;;42.80;19.15;;;;;;;4.74;93.24;98258.38;1797188;79;21237;-84
2021/01/05 06:15:34;;;;;;;38.95;18.80;;;;;;;4.77;93.04;98263.47;1801327;79;21256;-82
2021/01/05 06:18:11;;;;;;;39.30;17.10;;;;;;;4.84;92.46;98267.67;1804741;79;21244;-82
2021/01/05 06:20:39;;;;;;;36.40;16.90;;;;;;;4.79;93.06;98269.45;1797622;79;21265;-83
2021/01/05 06:23:07;;;;;;;35.48;16.48;;;;;;;4.80;93.22;98275.03;1751341;82;21277;-84
2021/01/05 06:25:37;;;;;;;36.35;16.60;;;;;;;4.89;92.13;98285.61;1746010;82;21283;-84
2021/01/05 06:28:05;;;;;;;35.13;16.48;;;;;;;4.89;92.56;98286.45;1766030;81;22339;-83
2021/01/05 06:30:33;;;;;;;32.23;14.65;;;;;;;4.97;92.06;98292.38;1764936;81;21542;-82
2021/01/05 06:33:00;;;;;;;34.70;14.40;;;;;;;4.99;92.04;98301.34;1809953;79;21284;-83
2021/01/05 06:35:28;;;;;;;30.00;14.38;;;;;;;4.96;92.61;98294.97;1807807;79;21233;-83
2021/01/05 06:37:56;;;;;;;32.05;14.68;;;;;;;5.03;91.98;98299.13;1748430;82;21252;-83
2021/01/05 06:40:26;;;;;;;28.02;13.62;;;;;;;5.01;92.31;98302.61;1762717;81;21387;-82
2021/01/05 06:42:56;;;;;;;27.15;11.65;;;;;;;5.06;91.80;98304.25;1768848;81;21257;-82
2021/01/05 06:45:28;;;;;;;31.82;12.25;;;;;;;5.08;91.76;98306.36;1738588;81;21122;-84
2021/01/05 06:47:56;;;;;;;26.95;11.88;;;;;;;5.06;91.62;98299.54;1804076;79;21236;-84
2021/01/05 06:50:27;;;;;;;24.63;11.38;;;;;;;5.04;92.18;98293.56;1754367;82;21276;-83
2021/01/05 06:52:55;;;;;;;25.23;10.05;;;;;;;5.12;91.69;98296.86;1759749;81;21280;-82
2021/01/05 06:55:23;;;;;;;23.75;10.30;;;;;;;5.11;91.68;98293.45;1752421;82;21173;-84
2021/01/05 06:57:51;;;;;;;20.92;10.13;;;;;;;5.07;92.17;98303.36;1759650;81;21311;-83
2021/01/05 07:00:23;;;;;;;20.85;10.28;;;;;;;5.11;92.14;98299.02;1743438;82;21301;-82
2021/01/05 07:02:52;;;;;;;23.38;10.08;;;;;;;5.05;92.47;98299.11;1758945;81;21232;-82
2021/01/05 07:05:21;;;;;;;21.77;10.13;;;;;;;5.13;92.09;98302.41;1745004;82;21614;-83
2021/01/05 07:07:49;;;;;;;22.52;9.70;;;;;;;5.12;92.16;98307.17;1812257;79;21259;-82
2021/01/05 07:10:19;;;;;;;21.15;9.00;;;;;;;5.14;92.16;98304.13;1745612;82;21314;-82
2021/01/05 07:12:48;;;;;;;21.73;10.25;;;;;;;5.11;92.33;98309.31;1806723;79;21484;-83
2021/01/05 07:15:18;;;;;;;18.57;8.90;;;;;;;5.10;92.56;98303.32;1811360;79;21268;-83
2021/01/05 07:17:46;;;;;;;19.48;10.00;;;;;;;5.16;92.06;98305.80;1810004;79;21527;-83
2021/01/05 07:20:16;;;;;;;17.73;8.23;;;;;;;5.17;92.11;98306.23;1733242;82;21292;-82
2021/01/05 07:22:43;;;;;;;17.82;8.88;;;;;;;5.18;91.86;98307.07;1812094;79;21162;-83
2021/01/05 07:25:14;;;;;;;18.62;8.13;;;;;;;5.18;92.10;98305.34;1806106;79;21137;-82
2021/01/05 07:27:41;;;;;;;20.68;8.90;;;;;;;5.17;92.32;98304.06;1763792;81;21233;-83
2021/01/05 07:30:11;;;;;;;18.12;9.05;;;;;;;5.23;92.03;98306.98;1719803;83;21681;-83
2021/01/05 07:32:39;;;;;;;20.52;8.55;;;;;;;5.17;92.66;98307.52;1808641;79;21259;-83
2021/01/05 07:35:09;;;;;;;18.23;8.15;;;;;;;5.17;92.43;98308.80;1811589;79;21617;-82
2021/01/05 07:37:41;;;;;;;18.42;8.65;;;;;;;5.25;92.16;98320.28;1766686;81;21303;-82
2021/01/05 07:40:13;;;;;;;17.62;8.58;;;;;;;5.23;92.10;98305.25;1748257;81;21272;-83
2021/01/05 07:42:41;;;;;;;17.90;8.63;;;;;;;5.20;92.59;98309.63;1735673;81;21288;-88
2021/01/05 07:45:17;;;;;;;17.25;8.13;;;;;;;5.25;92.28;98313.84;1759321;81;21192;-89
2021/01/05 07:47:45;;;;;;;17.65;8.18;;;;;;;5.27;92.25;98310.80;1743785;82;21300;-83
2021/01/05 07:50:21;;;;;;;17.62;8.33;;;;;;;5.21;92.43;98310.87;1743323;81;21311;-82
2021/01/05 07:52:48;;;;;;;15.85;7.72;;;;;;;5.27;92.04;98305.64;1749020;81;21264;-83
2021/01/05 07:55:23;;;;;;;14.07;6.83;;;;;;;5.29;91.95;98314.61;1743195;82;21357;-83
2021/01/05 07:57:52;;;;;;;13.20;7.25;;;;;;;5.34;91.70;98307.67;1807928;78;21082;-84
2021/01/05 08:00:24;;;;;;;15.78;8.00;;;;;;;5.32;91.81;98315.87;1746442;82;21130;-82
2021/01/05 08:05:30;;;;;;;14.33;7.37;;;;;;;5.42;91.59;98321.73;1783248;79;23384;-87
2021/01/05 08:07:58;;;;;;;15.78;7.33;;;;;;;5.36;91.66;98332.54;1809423;78;21094;-83
2021/01/05 08:10:33;;;;;;;15.93;7.37;;;;;;;5.33;92.14;98329.16;1759295;77;21454;-89
2021/01/05 08:13:09;;;;;;;15.48;7.20;;;;;;;5.37;92.03;98336.83;1735659;82;21591;-89
2021/01/05 08:15:37;;;;;;;13.60;7.20;;;;;;;5.44;91.51;98341.88;1727125;81;21098;-85
2021/01/05 08:18:07;;;;;;;15.25;6.53;;;;;;;5.44;91.29;98342.73;1722257;80;21311;-89
2021/01/05 08:20:35;;;;;;;14.63;6.67;;;;;;;5.45;91.07;98342.28;1727782;78;21177;-89
2021/01/05 08:23:04;;;;;;;14.65;6.40;;;;;;;5.49;90.53;98348.67;1646572;84;21178;-90
2021/01/05 08:25:32;;;;;;;12.28;5.50;;;;;;;5.40;90.55;98340.23;1720555;80;21265;-83
2021/01/05 08:28:01;;;;;;;12.13;5.67;;;;;;;5.44;90.36;98347.04;1726855;82;21271;-85
2021/01/05 08:30:33;;;;;;;10.75;5.12;;;;;;;5.49;89.98;98352.95;1757803;79;21297;-87
2021/01/05 08:33:04;;;;;;;9.28;4.80;;;;;;;5.52;89.96;98363.23;1680870;79;21148;-87
2021/01/05 08:35:32;;;;;;;9.35;5.40;;;;;;;5.52;90.04;98362.78;1624406;83;21177;-90
2021/01/05 08:38:00;;;;;;;11.43;6.03;;;;;;;5.50;89.74;98364.98;1731110;81;21164;-86
2021/01/05 08:40:31;;;;;;;8.95;4.75;;;;;;;5.56;89.68;98373.45;1728793;80;21138;-83
2021/01/05 08:43:03;;;;;;;11.05;5.65;;;;;;;5.52;89.41;98370.97;1706281;80;21240;-83
2021/01/05 08:45:31;;;;;;;12.05;4.92;;;;;;;5.54;89.06;98371.34;1704423;83;21456;-84
2021/01/05 08:48:00;;;;;;;10.05;4.97;;;;;;;5.56;89.01;98373.45;1736043;78;21188;-89
2021/01/05 08:50:32;;;;;;;10.55;4.75;;;;;;;5.61;88.79;98377.27;1735021;80;21272;-83
2021/01/05 08:53:04;;;;;;;8.75;3.85;;;;;;;5.63;88.42;98380.67;1734583;81;21082;-83
2021/01/05 08:55:40;;;;;;;7.65;3.98;;;;;;;5.70;88.24;98374.96;1745226;80;21270;-82
2021/01/05 08:58:09;;;;;;;7.28;3.75;;;;;;;5.63;87.96;98374.64;1720959;81;21542;-91
2021/01/05 09:00:37;;;;;;;8.68;4.10;;;;;;;5.67;87.86;98373.30;1787459;80;21220;-84
2021/01/05 09:03:06;;;;;;;8.40;3.95;;;;;;;5.72;87.72;98371.92;1788926;78;21299;-83
2021/01/05 09:05:35;;;;;;;7.70;4.00;;;;;;;5.76;87.40;98380.02;1787570;80;21086;-83
2021/01/05 09:08:03;;;;;;;8.98;4.10;;;;;;;5.77;87.14;98381.73;1739845;79;21240;-92
2021/01/05 09:10:30;;;;;;;6.45;3.08;;;;;;;5.81;87.38;98379.92;1754185;80;21143;-88
2021/01/05 09:12:58;;;;;;;6.75;2.90;;;;;;;5.86;86.38;98378.13;1757367;80;21519;-89
2021/01/05 09:15:25;;;;;;;7.70;2.92;;;;;;;5.82;86.25;98386.80;1752570;80;21150;-93
2021/01/05 09:17:53;;;;;;;4.37;2.50;;;;;;;5.91;85.86;98385.36;1752164;80;21265;-85
2021/01/05 09:20:24;;;;;;;5.90;2.65;;;;;;;5.93;85.20;98383.61;1760371;79;21260;-84
2021/01/05 09:22:54;;;;;;;6.33;1.80;;;;;;;5.97;85.50;98382.25;1757706;79;21236;-84
2021/01/05 09:25:22;;;;;;;4.72;2.37;;;;;;;6.07;84.80;98384.23;1772385;80;21105;-90
2021/01/05 09:27:52;;;;;;;3.58;1.82;;;;;;;6.13;84.13;98389.28;1773684;79;21247;-90
2021/01/05 09:30:22;;;;;;;4.12;1.82;;;;;;;6.26;84.19;98389.89;1759474;82;21144;-85
2021/01/05 09:32:49;;;;;;;4.35;2.20;;;;;;;6.31;83.88;98386.80;1774709;79;21296;-83
2021/01/05 09:35:18;;;;;;;4.30;2.02;;;;;;;6.24;83.02;98392.09;1750955;79;21321;-84
2021/01/05 09:37:48;;;;;;;3.47;1.57;;;;;;;6.32;82.96;98383.77;1709158;81;21106;-84
2021/01/05 09:40:19;;;;;;;3.83;1.50;;;;;;;6.40;83.42;98393.94;1697398;80;21133;-84
2021/01/05 09:42:49;;;;;;;6.08;2.10;;;;;;;6.30;82.81;98385.52;1734755;81;21192;-85
2021/01/05 09:45:17;;;;;;;2.90;1.67;;;;;;;6.44;83.88;98382.22;1731621;83;21272;-84
2021/01/05 09:47:45;;;;;;;4.35;1.80;;;;;;;6.36;82.68;98397.02;1738255;81;21251;-83
2021/01/05 09:50:13;;;;;;;3.92;1.90;;;;;;;6.50;83.12;98398.05;1743413;80;21530;-90
2021/01/05 09:52:40;;;;;;;4.75;2.20;;;;;;;6.51;82.72;98397.17;1684644;84;21786;-85
2021/01/05 09:55:08;;;;;;;3.52;1.87;;;;;;;6.62;82.23;98392.63;1742705;82;21181;-89
2021/01/05 09:57:38;;;;;;;3.58;1.82;;;;;;;6.66;82.49;98403.30;1738655;82;21146;-84
2021/01/05 10:00:09;;;;;;;3.55;1.90;;;;;;;6.61;82.15;98397.84;1737147;82;21157;-82
2021/01/05 10:02:36;;;;;;;4.83;1.70;;;;;;;6.67;81.90;98402.44;1743867;82;21146;-83
2021/01/05 10:05:06;;;;;;;3.90;1.95;;;;;;;6.60;81.40;98389.67;1742890;82;21246;-85
2021/01/05 10:07:33;;;;;;;5.12;1.98;;;;;;;6.68;81.25;98394.23;1751301;81;21252;-84
2021/01/05 10:10:00;;;;;;;3.95;1.90;;;;;;;6.63;82.04;98407.70;1756701;79;21313;-90
2021/01/05 10:12:28;;;;;;;3.60;1.60;;;;;;;6.59;81.54;98401.75;1752583;80;21580;-86
2021/01/05 10:14:55;;;;;;;5.53;2.17;;;;;;;6.57;81.70;98397.05;1748629;80;21218;-86
2021/01/05 10:17:22;;;;;;;4.17;1.75;;;;;;;6.56;81.75;98403.08;1752759;80;21129;-87
2021/01/05 10:19:49;;;;;;;3.62;1.90;;;;;;;6.61;81.83;98403.02;1761430;80;21145;-90
2021/01/05 10:22:17;;;;;;;4.47;1.75;;;;;;;6.61;82.09;98405.59;1745239;82;21286;-82
2021/01/05 10:24:45;;;;;;;3.72;2.10;;;;;;;6.65;82.18;98404.66;1764573;79;21255;-83
2021/01/05 10:27:12;;;;;;;4.53;1.95;;;;;;;6.64;81.75;98399.91;1739274;81;21295;-85
2021/01/05 10:29:40;;;;;;;2.75;1.62;;;;;;;6.58;81.67;98383.23;1735501;81;21287;-84
2021/01/05 10:32:07;;;;;;;3.30;1.70;;;;;;;6.66;81.43;98401.17;1732752;81;21157;-83
2021/01/05 10:34:35;;;;;;;3.00;1.90;;;;;;;6.62;81.50;98402.95;1733796;81;21329;-83
2021/01/05 10:37:02;;;;;;;5.35;2.02;;;;;;;6.70;81.07;98400.22;1733509;81;21274;-82
2021/01/05 10:39:30;;;;;;;4.67;2.00;;;;;;;6.81;82.04;98393.56;1739297;81;21240;-84
2021/01/05 10:42:03;;;;;;;2.98;1.70;;;;;;;6.82;81.46;98396.53;1730625;83;21325;-83
2021/01/05 10:44:32;;;;;;;5.33;2.20;;;;;;;6.87;81.69;98393.42;1741242;79;22035;-90
2021/01/05 10:47:03;;;;;;;6.50;2.25;;;;;;;7.03;81.23;98397.82;1767467;79;21137;-88
2021/01/05 10:49:31;;;;;;;4.22;2.20;;;;;;;7.07;80.70;98395.13;1771321;81;21280;-85
2021/01/05 10:52:01;;;;;;;4.50;2.40;;;;;;;7.12;80.54;98397.59;1767469;81;21232;-84
2021/01/05 10:54:30;;;;;;;5.42;2.72;;;;;;;7.09;80.22;98409.31;1770432;80;21156;-82
2021/01/05 10:57:03;;;;;;;5.15;2.05;;;;;;;7.16;80.64;98408.28;1769455;81;21236;-82
2021/01/05 10:59:32;;;;;;;4.40;1.90;;;;;;;7.15;80.08;98407.88;1773839;80;21275;-83
2021/01/05 11:02:02;;;;;;;4.28;2.27;;;;;;;7.10;80.20;98408.41;1780878;80;21268;-84
2021/01/05 11:04:31;;;;;;;3.00;1.37;;;;;;;7.09;80.45;98401.56;1761707;81;21247;-84
2021/01/05 11:07:02;;;;;;;4.10;1.82;;;;;;;7.15;80.45;98415.19;1767502;81;21280;-83
2021/01/05 11:09:30;;;;;;;3.33;1.80;;;;;;;7.13;80.37;98409.66;1769809;80;21247;-84
2021/01/05 11:12:05;;;;;;;5.40;1.80;;;;;;;7.06;80.48;98418.00;1770363;80;21145;-84
2021/01/05 11:14:32;;;;;;;3.55;1.70;;;;;;;7.18;80.63;98407.80;1767221;80;21244;-83
2021/01/05 11:17:00;;;;;;;4.53;1.90;;;;;;;7.04;80.49;98417.59;1774317;79;21117;-83
2021/01/05 11:19:27;;;;;;;4.37;1.72;;;;;;;7.09;80.36;98419.20;1766297;80;21237;-84
2021/01/05 11:21:59;;;;;;;4.00;1.90;;;;;;;7.17;80.31;98413.88;1775914;80;21157;-83
2021/01/05 11:24:28;;;;;;;4.17;1.60;;;;;;;7.07;80.37;98428.73;1768409;80;21267;-83
2021/01/05 11:26:57;;;;;;;6.28;2.22;;;;;;;7.04;80.72;98421.48;1770209;80;21086;-83
2021/01/05 11:29:26;;;;;;;4.20;2.20;;;;;;;7.08;80.92;98423.11;1771026;81;21301;-84
2021/01/05 11:32:00;;;;;;;4.53;2.15;;;;;;;7.04;81.09;98420.18;1722601;80;21335;-87
2021/01/05 11:34:29;;;;;;;5.70;2.10;;;;;;;7.09;80.82;98428.70;1699129;84;21138;-85
2021/01/05 11:37:07;;;;;;;4.28;2.10;;;;;;;6.94;81.33;98429.45;1709082;84;21181;-84
2021/01/05 11:39:36;;;;;;;3.40;1.80;;;;;;;6.91;81.80;98431.23;1708946;83;21290;-84
2021/01/05 11:42:06;;;;;;;6.80;2.25;;;;;;;6.91;81.68;98433.38;1707150;83;21316;-84
2021/01/05 11:44:34;;;;;;;3.30;2.08;;;;;;;6.84;82.44;98441.27;1703391;83;21295;-83
2021/01/05 11:47:02;;;;;;;3.58;2.00;;;;;;;6.69;83.35;98437.28;1753136;80;21200;-87
2021/01/05 11:49:29;;;;;;;4.50;2.30;;;;;;;6.73;83.43;98440.22;1751264;81;21195;-83
2021/01/05 11:51:57;;;;;;;5.55;2.40;;;;;;;6.65;83.71;98438.23;1780497;79;21160;-82
2021/01/05 11:54:25;;;;;;;6.40;2.50;;;;;;;6.66;83.58;98443.34;1791716;79;21298;-82
2021/01/05 11:56:58;;;;;;;5.80;2.70;;;;;;;6.69;83.43;98442.45;1790260;79;21188;-82
2021/01/05 11:59:28;;;;;;;5.25;2.98;;;;;;;6.73;83.16;98450.55;1786003;79;21305;-81
2021/01/05 12:01:57;;;;;;;5.67;2.85;;;;;;;6.69;83.77;98450.20;1814963;78;21140;-81
2021/01/05 12:04:24;;;;;;;6.83;3.92;;;;;;;6.71;83.64;98443.27;1815628;78;21267;-81
2021/01/05 12:06:54;;;;;;;8.53;4.20;;;;;;;6.77;83.62;98449.60;1813550;78;21275;-82
2021/01/05 12:09:26;;;;;;;8.15;4.37;;;;;;;6.74;83.89;98454.81;1813186;78;21263;-82
2021/01/05 12:12:03;;;;;;;8.50;3.85;;;;;;;6.77;83.88;98462.52;1821972;78;21264;-84